createdAt,value
2018-09-21T00:00:17.244Z,7.43
2018-09-21T00:02:45.036Z,8.00
2018-09-21T00:05:12.867Z,8.07
2018-09-21T00:07:40.686Z,7.47
2018-09-21T00:10:08.559Z,8.03
2018-09-21T00:12:36.308Z,8.03
2018-09-21T00:15:04.281Z,7.30
2018-09-21T00:17:32.180Z,8.00
2018-09-21T00:19:59.991Z,8.00
2018-09-21T00:22:27.846Z,7.77
2018-09-21T00:24:55.660Z,8.23
2018-09-21T00:27:23.497Z,8.00
2018-09-21T00:29:51.332Z,7.43
2018-09-21T00:32:19.142Z,7.70
2018-09-21T00:34:47.020Z,8.13
2018-09-21T00:37:14.895Z,7.67
2018-09-21T00:39:42.669Z,7.30
2018-09-21T00:42:10.470Z,7.70
2018-09-21T00:44:38.223Z,7.07
2018-09-21T00:47:06.087Z,7.80
2018-09-21T00:49:33.881Z,7.63
2018-09-21T00:52:01.654Z,7.60
2018-09-21T00:54:29.576Z,8.07
2018-09-21T00:56:57.535Z,7.67
2018-09-21T00:59:25.304Z,8.53
2018-09-21T01:01:53.133Z,8.13
2018-09-21T01:04:21.073Z,8.73
2018-09-21T01:06:48.829Z,8.13
2018-09-21T01:09:16.657Z,8.33
2018-09-21T01:11:48.129Z,8.20
2018-09-21T01:14:16.064Z,8.33
2018-09-21T01:16:43.901Z,8.23
2018-09-21T01:19:11.741Z,8.27
2018-09-21T01:21:39.512Z,7.90
2018-09-21T01:24:07.400Z,8.07
2018-09-21T01:26:35.255Z,8.17
2018-09-21T01:29:03.152Z,8.33
2018-09-21T01:31:30.968Z,8.50
2018-09-21T01:33:58.796Z,8.70
2018-09-21T01:36:26.559Z,8.97
2018-09-21T01:38:54.445Z,8.73
2018-09-21T01:41:22.287Z,8.07
2018-09-21T01:43:50.067Z,8.37
2018-09-21T01:46:17.964Z,8.33
2018-09-21T01:48:45.839Z,8.07
2018-09-21T01:51:13.584Z,8.97
2018-09-21T01:53:41.416Z,8.77
2018-09-21T01:56:09.156Z,9.03
2018-09-21T01:58:37.005Z,9.03
2018-09-21T02:01:04.853Z,9.13
2018-09-21T02:03:32.651Z,9.30
2018-09-21T02:06:00.440Z,8.97
2018-09-21T02:08:28.233Z,9.20
2018-09-21T02:10:56.065Z,8.60
2018-09-21T02:13:24.081Z,8.87
2018-09-21T02:15:52.165Z,8.70
2018-09-21T02:18:19.981Z,8.80
2018-09-21T02:20:47.752Z,8.60
2018-09-21T02:23:15.704Z,8.83
2018-09-21T02:25:43.511Z,10.20
2018-09-21T02:28:11.360Z,9.47
2018-09-21T02:30:39.282Z,9.80
2018-09-21T02:33:07.055Z,8.93
2018-09-21T02:35:34.801Z,9.30
2018-09-21T02:38:02.619Z,9.50
2018-09-21T02:40:30.336Z,10.30
2018-09-21T02:42:58.084Z,10.03
2018-09-21T02:45:25.915Z,10.17
2018-09-21T02:47:53.745Z,9.37
2018-09-21T02:50:21.852Z,9.77
2018-09-21T02:52:49.669Z,10.60
2018-09-21T02:55:17.549Z,9.80
2018-09-21T02:57:45.368Z,10.13
2018-09-21T03:00:13.180Z,8.13
2018-09-21T03:02:40.967Z,10.30
2018-09-21T03:05:08.852Z,9.97
2018-09-21T03:07:36.726Z,8.03
2018-09-21T03:10:04.628Z,9.03
2018-09-21T03:12:32.427Z,9.27
2018-09-21T03:15:00.253Z,9.77
2018-09-21T03:17:28.097Z,11.40
2018-09-21T03:19:55.954Z,10.30
2018-09-21T03:22:23.768Z,10.73
2018-09-21T03:24:51.532Z,9.87
2018-09-21T03:27:19.335Z,11.40
2018-09-21T03:29:47.295Z,10.93
2018-09-21T03:32:15.151Z,10.97
2018-09-21T03:34:42.968Z,10.13
2018-09-21T03:37:10.748Z,11.07
2018-09-21T03:39:38.597Z,10.63
2018-09-21T03:42:06.480Z,10.03
2018-09-21T03:44:34.265Z,9.33
2018-09-21T03:47:02.076Z,9.83
2018-09-21T03:49:29.950Z,11.60
2018-09-21T03:51:57.773Z,8.53
2018-09-21T03:54:25.520Z,11.50
2018-09-21T03:56:53.355Z,10.83
2018-09-21T03:59:21.194Z,11.37
2018-09-21T04:01:48.994Z,11.63
2018-09-21T04:04:16.920Z,11.10
2018-09-21T04:06:45.024Z,11.47
2018-09-21T04:09:13.893Z,10.73
2018-09-21T04:11:41.796Z,10.67
2018-09-21T04:14:09.560Z,11.87
2018-09-21T04:16:37.408Z,11.10
2018-09-21T04:19:05.536Z,11.97
2018-09-21T04:21:33.341Z,11.30
2018-09-21T04:24:01.145Z,11.90
2018-09-21T04:26:28.960Z,11.63
2018-09-21T04:28:56.786Z,11.77
2018-09-21T04:31:24.556Z,11.37
2018-09-21T04:33:52.353Z,10.90
2018-09-21T04:36:20.173Z,11.50
2018-09-21T04:38:47.995Z,11.63
2018-09-21T04:41:15.826Z,12.53
2018-09-21T04:43:43.713Z,10.97
2018-09-21T04:46:11.526Z,10.63
2018-09-21T04:48:39.500Z,9.80
2018-09-21T04:51:07.572Z,11.00
2018-09-21T04:53:37.561Z,9.13
2018-09-21T04:56:05.404Z,10.90
2018-09-21T04:58:33.217Z,11.60
2018-09-21T05:01:01.022Z,9.27
2018-09-21T05:03:28.829Z,9.47
2018-09-21T05:05:56.688Z,9.63
2018-09-21T05:08:24.516Z,9.73
2018-09-21T05:10:52.318Z,12.67
2018-09-21T05:13:24.578Z,11.80
2018-09-21T05:15:52.450Z,12.70
2018-09-21T05:18:20.290Z,12.13
2018-09-21T05:20:48.130Z,12.03
2018-09-21T05:23:15.944Z,12.87
2018-09-21T05:25:43.824Z,13.73
2018-09-21T05:28:11.616Z,13.13
2018-09-21T05:30:39.400Z,13.90
2018-09-21T05:33:07.204Z,13.73
2018-09-21T05:35:35.030Z,12.13
2018-09-21T05:38:02.914Z,14.33
2018-09-21T05:40:30.712Z,10.23
2018-09-21T05:42:58.531Z,12.47
2018-09-21T05:45:26.356Z,10.60
2018-09-21T05:47:54.144Z,13.83
2018-09-21T05:50:21.924Z,13.50
2018-09-21T05:52:49.760Z,11.10
2018-09-21T05:55:17.641Z,11.80
2018-09-21T05:57:45.439Z,12.30
2018-09-21T06:00:15.074Z,12.03
2018-09-21T06:02:43.347Z,10.90
2018-09-21T06:05:11.132Z,12.73
2018-09-21T06:07:39.082Z,10.13
2018-09-21T06:10:07.564Z,10.03
2018-09-21T06:12:35.956Z,10.23
2018-09-21T06:15:04.541Z,12.33
2018-09-21T06:17:32.353Z,11.80
2018-09-21T06:20:11.869Z,12.40
2018-09-21T06:22:28.033Z,11.80
2018-09-21T06:24:55.895Z,11.43
2018-09-21T06:27:23.757Z,12.43
2018-09-21T06:29:51.584Z,12.67
2018-09-21T06:32:19.388Z,11.40
2018-09-21T06:34:47.200Z,12.20
2018-09-21T06:37:15.079Z,12.77
2018-09-21T06:39:42.885Z,10.80
2018-09-21T06:42:10.715Z,10.80
2018-09-21T06:44:38.551Z,12.30
2018-09-21T06:47:06.344Z,12.53
2018-09-21T06:49:34.213Z,12.67
2018-09-21T06:52:02.855Z,11.07
2018-09-21T06:54:30.741Z,12.50
2018-09-21T06:56:58.592Z,13.07
2018-09-21T06:59:26.464Z,13.47
2018-09-21T07:01:54.295Z,11.57
2018-09-21T07:04:22.157Z,13.17
2018-09-21T07:06:49.945Z,13.37
2018-09-21T07:09:17.909Z,13.03
2018-09-21T07:11:45.771Z,14.53
2018-09-21T07:14:13.643Z,13.93
2018-09-21T07:16:41.824Z,12.77
2018-09-21T07:19:09.664Z,13.43
2018-09-21T07:21:40.924Z,13.23
2018-09-21T07:24:08.885Z,13.83
2018-09-21T07:26:36.800Z,12.97
2018-09-21T07:29:04.692Z,12.63
2018-09-21T07:31:32.793Z,10.63
2018-09-21T07:34:00.689Z,11.57
2018-09-21T07:36:28.485Z,11.03
2018-09-21T07:38:56.304Z,11.20
2018-09-21T07:41:24.136Z,9.97
2018-09-21T07:43:54.545Z,11.77
2018-09-21T07:46:22.384Z,9.90
2018-09-21T07:48:50.233Z,9.80
2018-09-21T07:51:18.168Z,8.50
2018-09-21T07:53:45.959Z,9.33
2018-09-21T07:56:13.806Z,8.33
2018-09-21T07:58:41.624Z,8.40
2018-09-21T08:01:09.420Z,7.43
2018-09-21T08:03:37.188Z,6.30
2018-09-21T08:06:05.013Z,6.20
2018-09-21T08:08:32.843Z,6.17
2018-09-21T08:11:00.635Z,6.00
2018-09-21T08:13:28.543Z,6.17
2018-09-21T08:15:56.320Z,6.97
2018-09-21T08:18:24.110Z,6.53
2018-09-21T08:20:51.948Z,6.57
2018-09-21T08:23:19.758Z,6.80
2018-09-21T08:25:47.689Z,5.90
2018-09-21T08:28:15.575Z,5.40
2018-09-21T08:30:50.427Z,6.47
2018-09-21T08:33:18.299Z,6.37
2018-09-21T08:35:46.069Z,6.23
2018-09-21T08:38:13.998Z,5.83
2018-09-21T08:40:42.759Z,6.17
2018-09-21T08:43:10.646Z,6.57
2018-09-21T08:45:38.551Z,6.60
2018-09-21T08:48:06.721Z,6.70
2018-09-21T08:50:36.146Z,5.40
2018-09-21T08:53:12.468Z,5.40
2018-09-21T08:55:41.675Z,5.83
2018-09-21T08:58:09.600Z,6.07
2018-09-21T09:00:37.427Z,5.80
2018-09-21T09:03:05.348Z,5.90
2018-09-21T09:05:38.961Z,5.80
2018-09-21T09:08:06.771Z,5.90
2018-09-21T09:10:34.606Z,5.47
2018-09-21T09:13:02.409Z,6.27
2018-09-21T09:15:30.324Z,5.37
2018-09-21T09:17:58.153Z,5.90
2018-09-21T09:20:25.971Z,6.13
2018-09-21T09:22:53.912Z,5.33
2018-09-21T09:25:21.728Z,5.53
2018-09-21T09:27:49.528Z,5.83
2018-09-21T09:30:17.392Z,5.37
2018-09-21T09:32:45.204Z,5.37
2018-09-21T09:35:13.127Z,5.47
2018-09-21T09:37:40.948Z,5.20
2018-09-21T09:40:08.725Z,5.13
2018-09-21T09:42:36.522Z,5.27
2018-09-21T09:45:04.751Z,5.07
2018-09-21T09:47:32.592Z,5.23
2018-09-21T09:50:00.396Z,5.07
2018-09-21T09:52:28.237Z,4.87
2018-09-21T09:54:56.341Z,5.77
2018-09-21T09:57:24.061Z,5.50
2018-09-21T09:59:51.841Z,5.17
2018-09-21T10:02:19.618Z,5.43
2018-09-21T10:04:47.438Z,5.47
2018-09-21T10:07:15.299Z,5.40
2018-09-21T10:09:43.124Z,5.47
2018-09-21T10:12:10.988Z,4.87
2018-09-21T10:14:38.847Z,5.17
2018-09-21T10:17:06.926Z,5.00
2018-09-21T10:19:34.820Z,5.17
2018-09-21T10:22:02.663Z,4.93
2018-09-21T10:24:30.477Z,4.83
2018-09-21T10:26:58.370Z,5.13
2018-09-21T10:29:26.136Z,4.67
2018-09-21T10:31:53.968Z,4.97
2018-09-21T10:34:25.729Z,4.50
2018-09-21T10:36:53.651Z,4.10
2018-09-21T10:39:21.597Z,4.30
2018-09-21T10:41:49.309Z,4.27
2018-09-21T10:44:17.138Z,4.80
2018-09-21T10:46:44.897Z,4.40
2018-09-21T10:49:12.752Z,4.40
2018-09-21T10:51:40.588Z,4.10
2018-09-21T10:54:08.494Z,4.40
2018-09-21T10:56:36.261Z,4.47
2018-09-21T10:59:04.140Z,4.00
2018-09-21T11:01:31.945Z,4.13
2018-09-21T11:03:59.850Z,4.07
2018-09-21T11:06:27.635Z,3.60
2018-09-21T11:08:55.480Z,4.00
2018-09-21T11:11:23.396Z,4.43
2018-09-21T11:13:51.196Z,3.80
2018-09-21T11:16:19.006Z,3.50
2018-09-21T11:18:46.809Z,3.60
2018-09-21T11:21:14.632Z,3.90
2018-09-21T11:23:42.452Z,3.90
2018-09-21T11:26:10.276Z,3.97
2018-09-21T11:28:38.059Z,3.80
2018-09-21T11:31:05.901Z,3.67
2018-09-21T11:33:33.648Z,3.73
2018-09-21T11:36:01.468Z,3.17
2018-09-21T11:38:29.241Z,3.40
2018-09-21T11:40:57.118Z,3.60
2018-09-21T11:43:24.884Z,3.27
2018-09-21T11:45:52.730Z,3.30
2018-09-21T11:48:20.682Z,3.30
2018-09-21T11:50:48.514Z,3.97
2018-09-21T11:53:16.360Z,3.67
2018-09-21T11:55:44.259Z,3.50
2018-09-21T11:58:12.132Z,3.40
2018-09-21T12:00:41.141Z,3.20
2018-09-21T12:03:09.125Z,3.43
2018-09-21T12:05:37.008Z,3.27
2018-09-21T12:08:04.885Z,3.30
2018-09-21T12:10:32.775Z,3.20
2018-09-21T12:13:00.675Z,2.60
2018-09-21T12:15:28.537Z,2.60
2018-09-21T12:17:56.430Z,2.47
2018-09-21T12:20:24.247Z,2.33
2018-09-21T12:22:55.509Z,2.30
2018-09-21T12:25:23.427Z,2.50
2018-09-21T12:27:51.312Z,3.50
2018-09-21T12:30:19.196Z,1.90
2018-09-21T12:32:46.988Z,1.87
2018-09-21T12:35:14.834Z,4.13
2018-09-21T12:37:42.648Z,2.40
2018-09-21T12:40:10.528Z,1.80
2018-09-21T12:42:38.485Z,2.50
2018-09-21T12:45:06.632Z,2.27
2018-09-21T12:47:34.547Z,2.90
2018-09-21T12:50:02.447Z,2.10
2018-09-21T12:52:30.314Z,2.17
2018-09-21T12:54:58.160Z,2.27
2018-09-21T12:57:26.068Z,2.17
2018-09-21T12:59:53.943Z,2.50
2018-09-21T13:02:21.836Z,2.30
2018-09-21T13:04:49.908Z,2.20
2018-09-21T13:07:17.655Z,2.33
2018-09-21T13:09:46.075Z,2.37
2018-09-21T13:12:20.138Z,2.33
2018-09-21T13:14:48.141Z,2.73
2018-09-21T13:17:15.936Z,2.37
2018-09-21T13:19:43.791Z,1.93
2018-09-21T13:22:17.123Z,1.70
2018-09-21T13:24:44.972Z,0.80
2018-09-21T13:27:16.275Z,0.60
2018-09-21T13:29:47.916Z,0.30
2018-09-21T13:32:15.767Z,0.40
2018-09-21T13:34:43.600Z,0.57
2018-09-21T13:37:17.010Z,0.50
2018-09-21T13:39:44.874Z,0.53
2018-09-21T13:42:12.692Z,0.50
2018-09-21T13:44:40.515Z,0.50
2018-09-21T13:47:09.191Z,0.40
2018-09-21T13:49:36.923Z,0.50
2018-09-21T13:52:04.824Z,0.50
2018-09-21T13:54:32.693Z,0.40
2018-09-21T13:57:00.490Z,0.60
2018-09-21T13:59:28.356Z,0.60
2018-09-21T14:01:56.200Z,0.67
2018-09-21T14:04:26.006Z,0.60
2018-09-21T14:06:53.780Z,0.77
2018-09-21T14:09:21.588Z,0.50
2018-09-21T14:11:49.488Z,0.63
2018-09-21T14:14:17.396Z,0.40
2018-09-21T14:16:45.208Z,1.00
2018-09-21T14:19:13.155Z,1.07
2018-09-21T14:21:41.097Z,1.00
2018-09-21T14:24:08.912Z,1.10
2018-09-21T14:26:36.772Z,1.43
2018-09-21T14:29:04.697Z,1.37
2018-09-21T14:31:32.446Z,1.10
2018-09-21T14:34:00.290Z,0.90
2018-09-21T14:36:28.312Z,1.00
2018-09-21T14:38:56.096Z,1.17
2018-09-21T14:41:23.865Z,1.33
2018-09-21T14:43:51.636Z,1.30
2018-09-21T14:46:19.481Z,1.50
2018-09-21T14:48:47.347Z,1.40
2018-09-21T14:51:15.280Z,1.33
2018-09-21T14:53:43.215Z,1.20
2018-09-21T14:56:19.907Z,1.10
2018-09-21T14:58:51.283Z,1.20
2018-09-21T15:01:19.301Z,1.33
2018-09-21T15:03:47.288Z,1.27
2018-09-21T15:06:15.266Z,1.20
2018-09-21T15:08:43.095Z,1.47
2018-09-21T15:11:11.371Z,1.70
2018-09-21T15:13:39.138Z,1.40
2018-09-21T15:16:11.669Z,1.20
2018-09-21T15:18:39.481Z,1.50
2018-09-21T15:21:07.304Z,1.53
2018-09-21T15:23:35.136Z,1.37
2018-09-21T15:26:02.996Z,2.07
2018-09-21T15:28:30.760Z,1.30
2018-09-21T15:30:58.656Z,1.50
2018-09-21T15:33:26.509Z,1.87
2018-09-21T15:35:54.324Z,1.77
2018-09-21T15:38:22.115Z,1.70
2018-09-21T15:40:49.961Z,1.83
2018-09-21T15:43:17.996Z,1.77
2018-09-21T15:45:45.736Z,1.97
2018-09-21T15:48:13.644Z,1.90
2018-09-21T15:50:41.527Z,1.67
2018-09-21T15:53:09.352Z,1.90
2018-09-21T15:55:37.132Z,1.77
2018-09-21T15:58:05.221Z,1.93
2018-09-21T16:00:33.166Z,1.73
2018-09-21T16:03:00.940Z,1.80
2018-09-21T16:05:28.772Z,2.03
2018-09-21T16:07:56.540Z,2.00
2018-09-21T16:10:24.268Z,1.83
2018-09-21T16:12:52.147Z,1.80
2018-09-21T16:15:20.056Z,1.90
2018-09-21T16:17:48.135Z,1.90
2018-09-21T16:20:16.008Z,2.10
2018-09-21T16:22:43.808Z,2.47
2018-09-21T16:25:12.220Z,1.80
2018-09-21T16:27:40.139Z,1.87
2018-09-21T16:30:08.892Z,1.77
2018-09-21T16:32:36.792Z,1.73
2018-09-21T16:35:05.256Z,1.60
2018-09-21T16:37:33.076Z,1.73
2018-09-21T16:40:00.928Z,1.40
2018-09-21T16:42:28.911Z,1.77
2018-09-21T16:44:56.741Z,1.40
2018-09-21T16:47:24.533Z,1.73
2018-09-21T16:49:52.487Z,1.23
2018-09-21T16:52:20.371Z,1.70
2018-09-21T16:54:48.160Z,1.47
2018-09-21T16:57:16.041Z,1.73
2018-09-21T16:59:43.819Z,1.70
2018-09-21T17:02:11.657Z,2.10
2018-09-21T17:04:39.524Z,1.53
2018-09-21T17:07:07.371Z,1.60
2018-09-21T17:09:35.282Z,2.20
2018-09-21T17:12:03.033Z,2.00
2018-09-21T17:14:30.885Z,1.60
2018-09-21T17:16:58.820Z,1.90
2018-09-21T17:19:26.624Z,2.00
2018-09-21T17:21:54.473Z,1.47
2018-09-21T17:24:22.260Z,1.53
2018-09-21T17:26:50.108Z,1.93
2018-09-21T17:29:17.827Z,1.83
2018-09-21T17:31:45.653Z,1.30
2018-09-21T17:34:13.442Z,1.47
2018-09-21T17:36:41.340Z,1.17
2018-09-21T17:39:11.188Z,1.00
2018-09-21T17:41:39.023Z,1.60
2018-09-21T17:44:07.109Z,1.73
2018-09-21T17:46:35.000Z,1.60
2018-09-21T17:49:02.917Z,1.17
2018-09-21T17:51:30.756Z,1.33
2018-09-21T17:53:58.605Z,1.00
2018-09-21T17:56:26.334Z,0.97
2018-09-21T17:58:54.153Z,0.90
2018-09-21T18:01:21.968Z,0.90
2018-09-21T18:03:49.777Z,0.97
2018-09-21T18:06:17.573Z,1.00
2018-09-21T18:08:45.353Z,1.00
2018-09-21T18:11:14.566Z,0.80
2018-09-21T18:13:42.349Z,1.13
2018-09-21T18:16:10.391Z,0.80
2018-09-21T18:18:38.043Z,1.30
2018-09-21T18:21:06.096Z,1.07
2018-09-21T18:23:35.236Z,0.97
2018-09-21T18:26:03.264Z,0.70
2018-09-21T18:28:30.943Z,1.00
2018-09-21T18:30:58.714Z,0.87
2018-09-21T18:33:26.624Z,0.90
2018-09-21T18:35:54.532Z,1.07
2018-09-21T18:38:22.352Z,1.13
2018-09-21T18:40:50.179Z,0.90
2018-09-21T18:43:18.036Z,1.23
2018-09-21T18:45:45.862Z,1.00
2018-09-21T18:48:13.751Z,1.20
2018-09-21T18:50:41.547Z,1.10
2018-09-21T18:53:09.368Z,0.97
2018-09-21T18:55:37.860Z,0.90
2018-09-21T18:58:08.743Z,0.87
2018-09-21T19:00:37.195Z,1.10
2018-09-21T19:03:05.144Z,0.80
2018-09-21T19:05:35.759Z,1.00
2018-09-21T19:08:04.010Z,1.23
2018-09-21T19:10:31.888Z,0.93
2018-09-21T19:13:00.857Z,0.70
2018-09-21T19:15:28.695Z,1.03
2018-09-21T19:17:56.570Z,1.03
2018-09-21T19:20:24.867Z,0.70
2018-09-21T19:22:52.757Z,1.27
2018-09-21T19:25:22.218Z,1.00
2018-09-21T19:27:50.290Z,1.10
2018-09-21T19:30:20.199Z,0.97
2018-09-21T19:32:48.146Z,0.97
2018-09-21T19:35:15.964Z,1.30
2018-09-21T19:37:51.213Z,1.00
2018-09-21T19:40:21.997Z,1.00
2018-09-21T19:42:50.154Z,1.27
2018-09-21T19:45:17.871Z,1.20
2018-09-21T19:47:45.639Z,1.13
2018-09-21T19:50:18.324Z,1.53
2018-09-21T19:52:46.194Z,1.60
2018-09-21T19:55:14.386Z,1.23
2018-09-21T19:57:43.672Z,1.40
2018-09-21T20:00:11.500Z,0.90
2018-09-21T20:02:39.355Z,0.93
2018-09-21T20:05:07.437Z,1.00
2018-09-21T20:07:35.327Z,1.40
2018-09-21T20:10:03.931Z,0.93
2018-09-21T20:12:32.691Z,1.20
2018-09-21T20:15:01.255Z,1.10
2018-09-21T20:17:33.842Z,1.33
2018-09-21T20:20:02.026Z,1.27
2018-09-21T20:22:31.927Z,1.17
2018-09-21T20:24:59.748Z,1.17
2018-09-21T20:27:28.041Z,1.50
2018-09-21T20:30:01.592Z,1.60
2018-09-21T20:32:35.036Z,1.33
2018-09-21T20:35:03.070Z,1.00
2018-09-21T20:37:30.871Z,1.20
2018-09-21T20:39:58.648Z,1.07
2018-09-21T20:42:26.712Z,1.00
2018-09-21T20:44:54.563Z,1.10
2018-09-21T20:47:22.360Z,1.13
2018-09-21T20:49:50.231Z,1.27
2018-09-21T20:52:18.064Z,1.00
2018-09-21T20:54:45.917Z,0.90
2018-09-21T20:57:13.746Z,0.93
2018-09-21T20:59:41.638Z,1.17
2018-09-21T21:02:09.845Z,1.13
2018-09-21T21:04:38.171Z,1.20
2018-09-21T21:07:06.119Z,1.00
2018-09-21T21:09:34.405Z,1.07
2018-09-21T21:12:03.445Z,1.03
2018-09-21T21:14:31.736Z,1.20
2018-09-21T21:16:59.921Z,1.30
2018-09-21T21:19:27.744Z,1.40
2018-09-21T21:21:55.776Z,0.93
2018-09-21T21:24:24.074Z,0.77
2018-09-21T21:26:53.977Z,1.30
2018-09-21T21:29:21.802Z,0.93
2018-09-21T21:31:50.383Z,1.50
2018-09-21T21:34:18.681Z,1.40
2018-09-21T21:36:46.780Z,1.53
2018-09-21T21:39:15.057Z,1.67
2018-09-21T21:41:43.241Z,1.13
2018-09-21T21:44:11.108Z,1.10
2018-09-21T21:46:38.948Z,1.00
2018-09-21T21:49:06.741Z,1.20
2018-09-21T21:51:34.621Z,1.30
2018-09-21T21:54:02.485Z,1.40
2018-09-21T21:56:30.359Z,1.37
2018-09-21T21:58:58.179Z,1.83
2018-09-21T22:01:31.755Z,1.17
2018-09-21T22:03:59.531Z,1.03
2018-09-21T22:06:27.367Z,1.33
2018-09-21T22:08:55.184Z,1.20
2018-09-21T22:11:29.144Z,0.93
2018-09-21T22:14:02.567Z,1.13
2018-09-21T22:16:30.400Z,1.37
2018-09-21T22:18:58.256Z,1.13
2018-09-21T22:21:26.130Z,1.27
2018-09-21T22:23:53.935Z,1.00
2018-09-21T22:26:21.799Z,1.20
2018-09-21T22:28:49.627Z,1.10
2018-09-21T22:31:17.416Z,1.33
2018-09-21T22:33:45.175Z,1.23
2018-09-21T22:36:13.044Z,0.90
2018-09-21T22:38:40.880Z,1.40
2018-09-21T22:41:08.712Z,1.00
2018-09-21T22:43:36.492Z,1.30
2018-09-21T22:46:04.319Z,0.93
2018-09-21T22:48:32.213Z,1.20
2018-09-21T22:50:59.987Z,1.10
2018-09-21T22:53:27.777Z,1.30
2018-09-21T22:55:55.710Z,0.87
2018-09-21T22:58:23.631Z,1.13
2018-09-21T23:00:51.486Z,1.17
2018-09-21T23:03:19.307Z,1.37
2018-09-21T23:05:47.152Z,0.93
2018-09-21T23:08:14.963Z,1.10
2018-09-21T23:10:42.765Z,1.23
2018-09-21T23:13:10.591Z,1.17
2018-09-21T23:15:38.440Z,1.27
2018-09-21T23:18:06.494Z,0.97
2018-09-21T23:20:34.346Z,1.00
2018-09-21T23:23:02.240Z,1.30
2018-09-21T23:25:30.073Z,1.10
2018-09-21T23:27:57.896Z,1.30
2018-09-21T23:30:25.743Z,1.03
2018-09-21T23:32:53.584Z,1.10
2018-09-21T23:35:21.497Z,1.20
2018-09-21T23:37:49.320Z,1.10
2018-09-21T23:40:17.200Z,1.00
2018-09-21T23:42:44.966Z,0.77
2018-09-21T23:45:12.796Z,1.10
2018-09-21T23:47:40.856Z,1.30
2018-09-21T23:50:08.799Z,1.10
2018-09-21T23:52:36.683Z,1.10
2018-09-21T23:55:05.103Z,1.03
2018-09-21T23:57:32.968Z,1.17
